Lanse, Pennsylvania
Current Conditions -  °F | °C
As of 10:54 AM on Thursday 23 Oct 2014 (Local Time) from KFIG Reporting Station
Overcast Overcast  
Wind Chill: 50°   Ceiling: 2100
Heat Index: 50°   Visibility: 10mi
Dew Point: 41°   Wind: 14mph
Humidity: 71%   Direction: 320°NW
Pressure: 30.03"   Gusts: 23mph
Location:  40.97°N, 78.13°W
Report Text: KFIG 231454Z AUTO 32012G20KT 10SM OVC021 10/05 A3003 RMK AO2 SLP173 T01000050 57004
Loading
Personal Weather Stations






























Interactive Weather Map
Tropical Storm Tracking
New forecast layout! Learn more

10-Day Weather Forecast

Advertisements
Track Severe Weather on mobile